sensor_id;sensor_type;location;lat;lon;timestamp;temperature;humidity
53422;DHT22;39319;52.944;5.928;2023-07-28T00:02:04;20.00;99.90
53422;DHT22;39319;52.944;5.928;2023-07-28T00:04:30;20.00;99.90
53422;DHT22;39319;52.944;5.928;2023-07-28T00:06:55;20.00;99.90
53422;DHT22;39319;52.944;5.928;2023-07-28T00:09:21;20.00;99.90
53422;DHT22;39319;52.944;5.928;2023-07-28T00:11:48;20.00;99.90
53422;DHT22;39319;52.944;5.928;2023-07-28T00:14:14;20.00;99.90
53422;DHT22;39319;52.944;5.928;2023-07-28T00:16:40;20.00;99.90
53422;DHT22;39319;52.944;5.928;2023-07-28T00:19:06;20.00;99.90
53422;DHT22;39319;52.944;5.928;2023-07-28T00:21:31;20.00;99.90
53422;DHT22;39319;52.944;5.928;2023-07-28T00:23:57;20.00;99.90
53422;DHT22;39319;52.944;5.928;2023-07-28T00:26:23;20.00;99.90
53422;DHT22;39319;52.944;5.928;2023-07-28T00:28:48;20.00;99.90
53422;DHT22;39319;52.944;5.928;2023-07-28T00:31:14;20.00;99.90
53422;DHT22;39319;52.944;5.928;2023-07-28T00:33:40;20.00;99.90
53422;DHT22;39319;52.944;5.928;2023-07-28T00:36:05;20.10;99.90
53422;DHT22;39319;52.944;5.928;2023-07-28T00:38:33;20.00;99.90
53422;DHT22;39319;52.944;5.928;2023-07-28T00:40:59;20.10;99.90
53422;DHT22;39319;52.944;5.928;2023-07-28T00:43:25;20.00;99.90
53422;DHT22;39319;52.944;5.928;2023-07-28T00:45:51;20.00;99.90
53422;DHT22;39319;52.944;5.928;2023-07-28T00:48:17;20.00;99.90
53422;DHT22;39319;52.944;5.928;2023-07-28T00:50:47;20.00;99.90
53422;DHT22;39319;52.944;5.928;2023-07-28T00:53:14;20.00;99.90
53422;DHT22;39319;52.944;5.928;2023-07-28T00:55:41;20.00;99.90
53422;DHT22;39319;52.944;5.928;2023-07-28T00:58:09;20.00;99.90
53422;DHT22;39319;52.944;5.928;2023-07-28T01:00:35;20.00;99.90
53422;DHT22;39319;52.944;5.928;2023-07-28T01:03:02;20.00;99.90
53422;DHT22;39319;52.944;5.928;2023-07-28T01:08:57;20.00;99.90
53422;DHT22;39319;52.944;5.928;2023-07-28T01:11:24;20.00;99.90
53422;DHT22;39319;52.944;5.928;2023-07-28T01:13:50;20.00;99.90
53422;DHT22;39319;52.944;5.928;2023-07-28T01:16:16;20.00;99.90
53422;DHT22;39319;52.944;5.928;2023-07-28T01:18:42;20.00;99.90
53422;DHT22;39319;52.944;5.928;2023-07-28T01:21:18;20.00;99.90
53422;DHT22;39319;52.944;5.928;2023-07-28T01:27:09;20.00;99.90
53422;DHT22;39319;52.944;5.928;2023-07-28T01:29:35;20.00;99.90
53422;DHT22;39319;52.944;5.928;2023-07-28T01:32:04;20.10;99.90
53422;DHT22;39319;52.944;5.928;2023-07-28T01:34:30;20.10;99.90
53422;DHT22;39319;52.944;5.928;2023-07-28T01:36:55;20.10;99.90
53422;DHT22;39319;52.944;5.928;2023-07-28T01:39:21;20.10;99.90
53422;DHT22;39319;52.944;5.928;2023-07-28T01:41:47;20.10;99.90
53422;DHT22;39319;52.944;5.928;2023-07-28T01:44:14;20.00;99.90
53422;DHT22;39319;52.944;5.928;2023-07-28T01:46:40;20.10;99.90
53422;DHT22;39319;52.944;5.928;2023-07-28T01:49:08;20.00;99.90
53422;DHT22;39319;52.944;5.928;2023-07-28T01:51:34;20.00;99.90
53422;DHT22;39319;52.944;5.928;2023-07-28T01:54:00;20.10;99.90
53422;DHT22;39319;52.944;5.928;2023-07-28T01:56:25;20.00;99.90
53422;DHT22;39319;52.944;5.928;2023-07-28T01:58:51;20.00;99.90
53422;DHT22;39319;52.944;5.928;2023-07-28T02:01:17;20.10;99.90
53422;DHT22;39319;52.944;5.928;2023-07-28T02:03:42;20.00;99.90
53422;DHT22;39319;52.944;5.928;2023-07-28T02:06:08;20.00;99.90
53422;DHT22;39319;52.944;5.928;2023-07-28T02:08:34;20.00;99.90
53422;DHT22;39319;52.944;5.928;2023-07-28T02:10:59;20.10;99.90
53422;DHT22;39319;52.944;5.928;2023-07-28T02:13:25;20.10;99.90
53422;DHT22;39319;52.944;5.928;2023-07-28T02:15:51;20.10;99.90
53422;DHT22;39319;52.944;5.928;2023-07-28T02:18:16;20.10;99.90
53422;DHT22;39319;52.944;5.928;2023-07-28T02:20:47;20.10;99.90
53422;DHT22;39319;52.944;5.928;2023-07-28T02:23:12;20.20;99.90
53422;DHT22;39319;52.944;5.928;2023-07-28T02:25:39;20.10;99.90
53422;DHT22;39319;52.944;5.928;2023-07-28T02:28:05;20.10;99.90
53422;DHT22;39319;52.944;5.928;2023-07-28T02:30:30;20.10;99.90
53422;DHT22;39319;52.944;5.928;2023-07-28T02:32:56;20.10;99.90
53422;DHT22;39319;52.944;5.928;2023-07-28T02:35:22;20.10;99.90
53422;DHT22;39319;52.944;5.928;2023-07-28T02:37:48;20.10;99.90
53422;DHT22;39319;52.944;5.928;2023-07-28T02:40:13;20.10;99.90
53422;DHT22;39319;52.944;5.928;2023-07-28T02:42:39;20.00;99.90
53422;DHT22;39319;52.944;5.928;2023-07-28T02:45:05;20.10;99.90
53422;DHT22;39319;52.944;5.928;2023-07-28T02:47:31;20.10;99.90
53422;DHT22;39319;52.944;5.928;2023-07-28T02:49:57;20.00;99.90
53422;DHT22;39319;52.944;5.928;2023-07-28T02:52:23;20.00;99.90
53422;DHT22;39319;52.944;5.928;2023-07-28T02:54:48;20.10;99.90
53422;DHT22;39319;52.944;5.928;2023-07-28T02:57:15;20.10;99.90
53422;DHT22;39319;52.944;5.928;2023-07-28T02:59:41;20.00;99.90
53422;DHT22;39319;52.944;5.928;2023-07-28T03:02:07;20.00;99.90
53422;DHT22;39319;52.944;5.928;2023-07-28T03:04:32;20.00;99.90
53422;DHT22;39319;52.944;5.928;2023-07-28T03:06:58;20.00;99.90
53422;DHT22;39319;52.944;5.928;2023-07-28T03:09:24;20.00;99.90
53422;DHT22;39319;52.944;5.928;2023-07-28T03:11:52;20.00;99.90
53422;DHT22;39319;52.944;5.928;2023-07-28T03:14:18;20.00;99.90
53422;DHT22;39319;52.944;5.928;2023-07-28T03:16:43;20.00;99.90
53422;DHT22;39319;52.944;5.928;2023-07-28T03:19:09;20.00;99.90
53422;DHT22;39319;52.944;5.928;2023-07-28T03:21:35;20.00;99.90
53422;DHT22;39319;52.944;5.928;2023-07-28T03:24:00;20.00;99.90
53422;DHT22;39319;52.944;5.928;2023-07-28T03:26:26;20.00;99.90
53422;DHT22;39319;52.944;5.928;2023-07-28T03:28:52;20.10;99.90
53422;DHT22;39319;52.944;5.928;2023-07-28T03:31:18;20.00;99.90
53422;DHT22;39319;52.944;5.928;2023-07-28T03:33:43;20.00;99.90
53422;DHT22;39319;52.944;5.928;2023-07-28T03:36:09;20.00;99.90
53422;DHT22;39319;52.944;5.928;2023-07-28T03:38:35;20.00;99.90
53422;DHT22;39319;52.944;5.928;2023-07-28T03:41:03;20.00;99.90
53422;DHT22;39319;52.944;5.928;2023-07-28T03:43:28;20.10;99.90
53422;DHT22;39319;52.944;5.928;2023-07-28T03:45:54;20.00;99.90
53422;DHT22;39319;52.944;5.928;2023-07-28T03:48:20;20.10;99.90
53422;DHT22;39319;52.944;5.928;2023-07-28T03:50:45;20.00;99.90
53422;DHT22;39319;52.944;5.928;2023-07-28T03:53:11;20.00;99.90
53422;DHT22;39319;52.944;5.928;2023-07-28T03:55:37;20.10;99.90
53422;DHT22;39319;52.944;5.928;2023-07-28T03:58:03;20.00;99.90
53422;DHT22;39319;52.944;5.928;2023-07-28T04:00:29;20.00;99.90
53422;DHT22;39319;52.944;5.928;2023-07-28T04:02:55;20.00;99.90
53422;DHT22;39319;52.944;5.928;2023-07-28T04:05:21;20.00;99.90
53422;DHT22;39319;52.944;5.928;2023-07-28T04:07:46;20.10;99.90
53422;DHT22;39319;52.944;5.928;2023-07-28T04:10:12;20.00;99.90
53422;DHT22;39319;52.944;5.928;2023-07-28T04:12:38;20.00;99.90
53422;DHT22;39319;52.944;5.928;2023-07-28T04:15:04;20.00;99.90
53422;DHT22;39319;52.944;5.928;2023-07-28T04:17:29;20.00;99.90
53422;DHT22;39319;52.944;5.928;2023-07-28T04:19:55;20.00;99.90
53422;DHT22;39319;52.944;5.928;2023-07-28T04:22:21;20.00;99.90
53422;DHT22;39319;52.944;5.928;2023-07-28T04:24:47;20.00;99.90
53422;DHT22;39319;52.944;5.928;2023-07-28T04:27:14;20.00;99.90
53422;DHT22;39319;52.944;5.928;2023-07-28T04:29:39;20.00;99.90
53422;DHT22;39319;52.944;5.928;2023-07-28T04:32:05;20.00;99.90
53422;DHT22;39319;52.944;5.928;2023-07-28T04:34:34;20.00;99.90
53422;DHT22;39319;52.944;5.928;2023-07-28T04:37:00;20.00;99.90
53422;DHT22;39319;52.944;5.928;2023-07-28T04:39:26;20.10;99.90
53422;DHT22;39319;52.944;5.928;2023-07-28T04:41:51;20.10;99.90
53422;DHT22;39319;52.944;5.928;2023-07-28T04:44:18;20.10;99.90
53422;DHT22;39319;52.944;5.928;2023-07-28T04:46:44;20.00;99.90
53422;DHT22;39319;52.944;5.928;2023-07-28T04:49:13;20.10;99.90
53422;DHT22;39319;52.944;5.928;2023-07-28T04:51:39;20.00;99.90
53422;DHT22;39319;52.944;5.928;2023-07-28T04:54:04;20.00;99.90
53422;DHT22;39319;52.944;5.928;2023-07-28T04:56:30;20.00;99.90
53422;DHT22;39319;52.944;5.928;2023-07-28T04:58:56;20.00;99.90
53422;DHT22;39319;52.944;5.928;2023-07-28T05:01:24;20.00;99.90
53422;DHT22;39319;52.944;5.928;2023-07-28T05:03:50;20.10;99.90
53422;DHT22;39319;52.944;5.928;2023-07-28T05:06:16;20.10;99.90
53422;DHT22;39319;52.944;5.928;2023-07-28T05:08:41;20.10;99.90
53422;DHT22;39319;52.944;5.928;2023-07-28T05:11:07;20.10;99.90
53422;DHT22;39319;52.944;5.928;2023-07-28T05:13:33;20.10;99.90
53422;DHT22;39319;52.944;5.928;2023-07-28T05:16:00;20.10;99.90
53422;DHT22;39319;52.944;5.928;2023-07-28T05:18:26;20.10;99.90
53422;DHT22;39319;52.944;5.928;2023-07-28T05:20:52;20.10;99.90
53422;DHT22;39319;52.944;5.928;2023-07-28T05:23:17;20.20;99.90
53422;DHT22;39319;52.944;5.928;2023-07-28T05:25:43;20.10;99.90
53422;DHT22;39319;52.944;5.928;2023-07-28T05:28:09;20.10;99.90
53422;DHT22;39319;52.944;5.928;2023-07-28T05:30:35;20.20;99.90
53422;DHT22;39319;52.944;5.928;2023-07-28T05:33:00;20.20;99.90
53422;DHT22;39319;52.944;5.928;2023-07-28T05:35:26;20.20;99.90
53422;DHT22;39319;52.944;5.928;2023-07-28T05:37:52;20.20;99.90
53422;DHT22;39319;52.944;5.928;2023-07-28T05:40:17;20.30;99.90
53422;DHT22;39319;52.944;5.928;2023-07-28T05:42:43;20.20;99.90
53422;DHT22;39319;52.944;5.928;2023-07-28T05:45:11;20.30;99.90
53422;DHT22;39319;52.944;5.928;2023-07-28T05:47:37;20.20;99.90
53422;DHT22;39319;52.944;5.928;2023-07-28T05:50:03;20.20;99.90
53422;DHT22;39319;52.944;5.928;2023-07-28T05:52:29;20.20;99.90
53422;DHT22;39319;52.944;5.928;2023-07-28T05:54:55;20.20;99.90
53422;DHT22;39319;52.944;5.928;2023-07-28T05:57:20;20.20;99.90
53422;DHT22;39319;52.944;5.928;2023-07-28T05:59:46;20.20;99.90
53422;DHT22;39319;52.944;5.928;2023-07-28T06:02:12;20.20;99.90
53422;DHT22;39319;52.944;5.928;2023-07-28T06:04:38;20.20;99.90
53422;DHT22;39319;52.944;5.928;2023-07-28T06:07:04;20.30;99.90
53422;DHT22;39319;52.944;5.928;2023-07-28T06:09:30;20.20;99.90
53422;DHT22;39319;52.944;5.928;2023-07-28T06:11:55;20.30;99.90
53422;DHT22;39319;52.944;5.928;2023-07-28T06:14:21;20.20;99.90
53422;DHT22;39319;52.944;5.928;2023-07-28T06:16:47;20.20;99.90
53422;DHT22;39319;52.944;5.928;2023-07-28T06:19:12;20.20;99.90
53422;DHT22;39319;52.944;5.928;2023-07-28T06:21:38;20.30;99.90
53422;DHT22;39319;52.944;5.928;2023-07-28T06:24:04;20.20;99.90
53422;DHT22;39319;52.944;5.928;2023-07-28T06:26:31;20.30;99.90
53422;DHT22;39319;52.944;5.928;2023-07-28T06:28:57;20.30;99.90
53422;DHT22;39319;52.944;5.928;2023-07-28T06:31:23;20.40;99.90
53422;DHT22;39319;52.944;5.928;2023-07-28T06:33:49;20.40;99.90
53422;DHT22;39319;52.944;5.928;2023-07-28T06:36:17;20.40;99.90
53422;DHT22;39319;52.944;5.928;2023-07-28T06:38:43;20.50;99.90
53422;DHT22;39319;52.944;5.928;2023-07-28T06:41:11;20.50;99.90
53422;DHT22;39319;52.944;5.928;2023-07-28T06:43:37;20.50;99.90
53422;DHT22;39319;52.944;5.928;2023-07-28T06:46:02;20.50;99.90
53422;DHT22;39319;52.944;5.928;2023-07-28T06:48:28;20.50;99.90
53422;DHT22;39319;52.944;5.928;2023-07-28T06:50:54;20.50;99.90
53422;DHT22;39319;52.944;5.928;2023-07-28T06:53:19;20.50;99.90
53422;DHT22;39319;52.944;5.928;2023-07-28T06:55:45;20.50;99.90
53422;DHT22;39319;52.944;5.928;2023-07-28T06:58:11;20.60;99.90
53422;DHT22;39319;52.944;5.928;2023-07-28T07:00:37;20.60;99.90
53422;DHT22;39319;52.944;5.928;2023-07-28T07:03:03;20.60;99.90
53422;DHT22;39319;52.944;5.928;2023-07-28T07:05:32;20.60;99.90
53422;DHT22;39319;52.944;5.928;2023-07-28T07:07:57;20.60;99.90
53422;DHT22;39319;52.944;5.928;2023-07-28T07:10:23;20.60;99.90
53422;DHT22;39319;52.944;5.928;2023-07-28T07:12:49;20.70;99.90
53422;DHT22;39319;52.944;5.928;2023-07-28T07:15:15;20.60;99.90
53422;DHT22;39319;52.944;5.928;2023-07-28T07:17:41;20.70;99.90
53422;DHT22;39319;52.944;5.928;2023-07-28T07:20:07;20.80;99.90
53422;DHT22;39319;52.944;5.928;2023-07-28T07:22:33;20.80;99.90
53422;DHT22;39319;52.944;5.928;2023-07-28T07:25:01;20.80;99.90
53422;DHT22;39319;52.944;5.928;2023-07-28T07:27:27;20.90;99.90
53422;DHT22;39319;52.944;5.928;2023-07-28T07:29:52;20.90;99.90
53422;DHT22;39319;52.944;5.928;2023-07-28T07:32:18;21.00;99.90
53422;DHT22;39319;52.944;5.928;2023-07-28T07:34:44;21.10;99.90
53422;DHT22;39319;52.944;5.928;2023-07-28T07:37:09;21.10;99.90
53422;DHT22;39319;52.944;5.928;2023-07-28T07:39:35;21.20;99.90
53422;DHT22;39319;52.944;5.928;2023-07-28T07:42:02;21.20;99.90
53422;DHT22;39319;52.944;5.928;2023-07-28T07:44:27;21.30;99.90
53422;DHT22;39319;52.944;5.928;2023-07-28T07:46:54;21.30;99.90
53422;DHT22;39319;52.944;5.928;2023-07-28T07:49:19;21.40;99.90
53422;DHT22;39319;52.944;5.928;2023-07-28T07:51:45;21.60;99.90
53422;DHT22;39319;52.944;5.928;2023-07-28T07:54:11;21.60;99.90
53422;DHT22;39319;52.944;5.928;2023-07-28T07:56:41;21.60;99.90
53422;DHT22;39319;52.944;5.928;2023-07-28T07:59:10;21.60;99.90
53422;DHT22;39319;52.944;5.928;2023-07-28T08:01:36;21.50;99.90
53422;DHT22;39319;52.944;5.928;2023-07-28T08:04:01;21.50;99.90
53422;DHT22;39319;52.944;5.928;2023-07-28T08:06:27;21.50;99.90
53422;DHT22;39319;52.944;5.928;2023-07-28T08:08:53;21.50;99.90
53422;DHT22;39319;52.944;5.928;2023-07-28T08:11:19;21.50;99.90
53422;DHT22;39319;52.944;5.928;2023-07-28T08:13:45;21.50;99.90
53422;DHT22;39319;52.944;5.928;2023-07-28T08:16:11;21.60;99.90
53422;DHT22;39319;52.944;5.928;2023-07-28T08:18:36;21.70;99.90
53422;DHT22;39319;52.944;5.928;2023-07-28T08:21:02;21.80;99.90
53422;DHT22;39319;52.944;5.928;2023-07-28T08:23:28;21.80;99.90
53422;DHT22;39319;52.944;5.928;2023-07-28T08:25:54;21.90;99.90
53422;DHT22;39319;52.944;5.928;2023-07-28T08:28:19;21.90;99.90
53422;DHT22;39319;52.944;5.928;2023-07-28T08:30:52;22.10;99.90
53422;DHT22;39319;52.944;5.928;2023-07-28T08:33:18;22.10;99.90
53422;DHT22;39319;52.944;5.928;2023-07-28T08:35:43;22.30;99.90
53422;DHT22;39319;52.944;5.928;2023-07-28T08:38:09;22.30;99.90
53422;DHT22;39319;52.944;5.928;2023-07-28T08:40:35;22.40;99.90
53422;DHT22;39319;52.944;5.928;2023-07-28T08:43:01;22.40;99.90
53422;DHT22;39319;52.944;5.928;2023-07-28T08:45:27;22.40;99.90
53422;DHT22;39319;52.944;5.928;2023-07-28T08:47:53;22.30;99.90
53422;DHT22;39319;52.944;5.928;2023-07-28T08:50:19;22.30;99.90
53422;DHT22;39319;52.944;5.928;2023-07-28T08:52:45;22.20;99.90
53422;DHT22;39319;52.944;5.928;2023-07-28T08:55:11;22.20;99.90
53422;DHT22;39319;52.944;5.928;2023-07-28T08:57:38;22.20;99.90
53422;DHT22;39319;52.944;5.928;2023-07-28T09:00:11;22.20;99.90
53422;DHT22;39319;52.944;5.928;2023-07-28T09:02:40;22.10;99.90
53422;DHT22;39319;52.944;5.928;2023-07-28T09:05:05;22.30;99.90
53422;DHT22;39319;52.944;5.928;2023-07-28T09:07:35;22.30;99.90
53422;DHT22;39319;52.944;5.928;2023-07-28T09:10:02;22.40;99.90
53422;DHT22;39319;52.944;5.928;2023-07-28T09:12:31;22.40;99.90
53422;DHT22;39319;52.944;5.928;2023-07-28T09:14:57;22.50;99.90
53422;DHT22;39319;52.944;5.928;2023-07-28T09:17:23;22.60;99.90
53422;DHT22;39319;52.944;5.928;2023-07-28T09:19:57;22.70;99.90
53422;DHT22;39319;52.944;5.928;2023-07-28T09:22:23;22.80;99.90
53422;DHT22;39319;52.944;5.928;2023-07-28T09:24:50;22.90;99.90
53422;DHT22;39319;52.944;5.928;2023-07-28T09:27:20;23.10;99.90
53422;DHT22;39319;52.944;5.928;2023-07-28T09:29:54;23.20;99.90
53422;DHT22;39319;52.944;5.928;2023-07-28T09:32:32;23.30;99.90
53422;DHT22;39319;52.944;5.928;2023-07-28T09:35:09;23.40;99.90
53422;DHT22;39319;52.944;5.928;2023-07-28T09:37:42;23.50;99.90
53422;DHT22;39319;52.944;5.928;2023-07-28T09:40:09;23.50;99.90
53422;DHT22;39319;52.944;5.928;2023-07-28T09:42:39;23.70;99.90
53422;DHT22;39319;52.944;5.928;2023-07-28T09:45:05;23.80;99.90
53422;DHT22;39319;52.944;5.928;2023-07-28T09:47:34;23.80;99.90
53422;DHT22;39319;52.944;5.928;2023-07-28T09:50:05;23.80;99.90
53422;DHT22;39319;52.944;5.928;2023-07-28T09:52:34;23.80;99.90
53422;DHT22;39319;52.944;5.928;2023-07-28T09:55:05;23.70;99.90
53422;DHT22;39319;52.944;5.928;2023-07-28T09:57:33;23.70;99.90
53422;DHT22;39319;52.944;5.928;2023-07-28T10:00:02;23.70;99.90
53422;DHT22;39319;52.944;5.928;2023-07-28T10:02:29;23.70;99.90
53422;DHT22;39319;52.944;5.928;2023-07-28T10:04:55;23.90;99.90
53422;DHT22;39319;52.944;5.928;2023-07-28T10:07:21;23.90;99.90
53422;DHT22;39319;52.944;5.928;2023-07-28T10:09:47;24.00;99.90
53422;DHT22;39319;52.944;5.928;2023-07-28T10:12:24;24.10;99.90
53422;DHT22;39319;52.944;5.928;2023-07-28T10:15:00;24.10;99.90
53422;DHT22;39319;52.944;5.928;2023-07-28T10:17:34;24.30;99.90
53422;DHT22;39319;52.944;5.928;2023-07-28T10:20:04;24.20;99.60
53422;DHT22;39319;52.944;5.928;2023-07-28T10:22:45;24.30;99.60
53422;DHT22;39319;52.944;5.928;2023-07-28T10:25:12;24.40;99.90
53422;DHT22;39319;52.944;5.928;2023-07-28T10:27:39;24.50;99.90
53422;DHT22;39319;52.944;5.928;2023-07-28T10:30:13;24.60;99.40
53422;DHT22;39319;52.944;5.928;2023-07-28T10:32:41;24.70;98.70
53422;DHT22;39319;52.944;5.928;2023-07-28T10:35:30;24.60;99.10
53422;DHT22;39319;52.944;5.928;2023-07-28T10:38:32;24.80;98.60
53422;DHT22;39319;52.944;5.928;2023-07-28T10:43:35;24.70;98.90
53422;DHT22;39319;52.944;5.928;2023-07-28T10:46:01;24.70;99.40
53422;DHT22;39319;52.944;5.928;2023-07-28T10:48:27;24.80;98.50
53422;DHT22;39319;52.944;5.928;2023-07-28T10:50:52;24.80;98.50
53422;DHT22;39319;52.944;5.928;2023-07-28T10:53:19;24.80;98.20
53422;DHT22;39319;52.944;5.928;2023-07-28T10:55:45;24.70;98.30
53422;DHT22;39319;52.944;5.928;2023-07-28T10:58:10;24.60;99.10
53422;DHT22;39319;52.944;5.928;2023-07-28T11:00:36;24.60;99.00
53422;DHT22;39319;52.944;5.928;2023-07-28T11:03:02;24.60;98.40
53422;DHT22;39319;52.944;5.928;2023-07-28T11:05:29;24.70;98.70
53422;DHT22;39319;52.944;5.928;2023-07-28T11:08:01;24.60;98.40
53422;DHT22;39319;52.944;5.928;2023-07-28T11:10:31;24.60;98.90
53422;DHT22;39319;52.944;5.928;2023-07-28T11:13:00;24.70;99.40
53422;DHT22;39319;52.944;5.928;2023-07-28T11:15:27;24.80;98.90
53422;DHT22;39319;52.944;5.928;2023-07-28T11:17:53;24.90;98.50
53422;DHT22;39319;52.944;5.928;2023-07-28T11:20:26;24.90;98.40
53422;DHT22;39319;52.944;5.928;2023-07-28T11:25:20;25.00;98.90
53422;DHT22;39319;52.944;5.928;2023-07-28T11:27:47;25.10;99.30
53422;DHT22;39319;52.944;5.928;2023-07-28T11:30:14;25.40;99.80
53422;DHT22;39319;52.944;5.928;2023-07-28T11:32:42;25.70;98.30
53422;DHT22;39319;52.944;5.928;2023-07-28T11:35:11;25.60;97.70
53422;DHT22;39319;52.944;5.928;2023-07-28T11:37:38;25.80;98.30
53422;DHT22;39319;52.944;5.928;2023-07-28T11:40:06;25.80;98.40
53422;DHT22;39319;52.944;5.928;2023-07-28T11:42:34;25.80;97.90
53422;DHT22;39319;52.944;5.928;2023-07-28T11:45:04;25.80;97.60
53422;DHT22;39319;52.944;5.928;2023-07-28T11:47:31;26.00;97.50
53422;DHT22;39319;52.944;5.928;2023-07-28T11:49:57;26.00;97.40
53422;DHT22;39319;52.944;5.928;2023-07-28T11:52:35;26.10;97.90
53422;DHT22;39319;52.944;5.928;2023-07-28T11:55:07;26.30;97.10
53422;DHT22;39319;52.944;5.928;2023-07-28T11:57:33;26.30;97.20
53422;DHT22;39319;52.944;5.928;2023-07-28T11:59:59;26.50;97.20
53422;DHT22;39319;52.944;5.928;2023-07-28T12:02:32;26.60;96.10
53422;DHT22;39319;52.944;5.928;2023-07-28T12:04:59;26.60;96.70
53422;DHT22;39319;52.944;5.928;2023-07-28T12:07:32;26.70;96.20
53422;DHT22;39319;52.944;5.928;2023-07-28T12:10:05;26.60;96.80
53422;DHT22;39319;52.944;5.928;2023-07-28T12:12:44;26.70;96.40
53422;DHT22;39319;52.944;5.928;2023-07-28T12:15:20;26.70;95.90
53422;DHT22;39319;52.944;5.928;2023-07-28T12:18:04;26.70;96.50
53422;DHT22;39319;52.944;5.928;2023-07-28T12:20:46;26.80;95.70
53422;DHT22;39319;52.944;5.928;2023-07-28T12:23:14;26.90;96.00
53422;DHT22;39319;52.944;5.928;2023-07-28T12:25:41;26.90;95.90
53422;DHT22;39319;52.944;5.928;2023-07-28T12:28:07;27.00;95.40
53422;DHT22;39319;52.944;5.928;2023-07-28T12:30:34;26.90;95.70
53422;DHT22;39319;52.944;5.928;2023-07-28T12:32:59;26.90;95.60
53422;DHT22;39319;52.944;5.928;2023-07-28T12:35:27;26.90;95.60
53422;DHT22;39319;52.944;5.928;2023-07-28T12:37:57;26.90;95.50
53422;DHT22;39319;52.944;5.928;2023-07-28T12:40:26;26.90;95.60
53422;DHT22;39319;52.944;5.928;2023-07-28T12:42:53;26.90;96.10
53422;DHT22;39319;52.944;5.928;2023-07-28T12:45:20;27.10;95.30
53422;DHT22;39319;52.944;5.928;2023-07-28T12:47:46;27.00;95.50
53422;DHT22;39319;52.944;5.928;2023-07-28T12:50:15;27.20;95.80
53422;DHT22;39319;52.944;5.928;2023-07-28T12:52:40;27.10;95.40
53422;DHT22;39319;52.944;5.928;2023-07-28T12:55:07;27.20;95.80
53422;DHT22;39319;52.944;5.928;2023-07-28T12:57:33;27.40;95.50
53422;DHT22;39319;52.944;5.928;2023-07-28T12:59:59;27.30;94.80
53422;DHT22;39319;52.944;5.928;2023-07-28T13:02:24;27.20;94.90
53422;DHT22;39319;52.944;5.928;2023-07-28T13:04:50;27.10;94.90
53422;DHT22;39319;52.944;5.928;2023-07-28T13:07:16;26.80;94.90
53422;DHT22;39319;52.944;5.928;2023-07-28T13:09:43;26.60;94.80
53422;DHT22;39319;52.944;5.928;2023-07-28T13:12:09;26.40;95.10
53422;DHT22;39319;52.944;5.928;2023-07-28T13:14:35;26.30;95.30
53422;DHT22;39319;52.944;5.928;2023-07-28T13:17:00;26.20;95.50
53422;DHT22;39319;52.944;5.928;2023-07-28T13:19:28;26.20;95.20
53422;DHT22;39319;52.944;5.928;2023-07-28T13:21:54;26.10;95.80
53422;DHT22;39319;52.944;5.928;2023-07-28T13:24:19;26.10;95.60
53422;DHT22;39319;52.944;5.928;2023-07-28T13:26:45;26.00;95.60
53422;DHT22;39319;52.944;5.928;2023-07-28T13:29:11;26.10;95.70
53422;DHT22;39319;52.944;5.928;2023-07-28T13:31:36;26.00;96.30
53422;DHT22;39319;52.944;5.928;2023-07-28T13:34:02;25.90;96.70
53422;DHT22;39319;52.944;5.928;2023-07-28T13:36:28;26.00;96.40
53422;DHT22;39319;52.944;5.928;2023-07-28T13:38:54;26.00;96.40
53422;DHT22;39319;52.944;5.928;2023-07-28T13:41:19;26.00;96.30
53422;DHT22;39319;52.944;5.928;2023-07-28T13:43:45;26.00;96.50
53422;DHT22;39319;52.944;5.928;2023-07-28T13:46:11;26.00;96.20
53422;DHT22;39319;52.944;5.928;2023-07-28T13:48:37;26.10;96.50
53422;DHT22;39319;52.944;5.928;2023-07-28T13:51:04;26.10;96.70
53422;DHT22;39319;52.944;5.928;2023-07-28T13:53:30;26.30;96.60
53422;DHT22;39319;52.944;5.928;2023-07-28T13:55:56;26.30;96.90
53422;DHT22;39319;52.944;5.928;2023-07-28T13:58:22;26.40;96.20
53422;DHT22;39319;52.944;5.928;2023-07-28T14:00:47;26.40;96.20
53422;DHT22;39319;52.944;5.928;2023-07-28T14:03:13;26.50;95.70
53422;DHT22;39319;52.944;5.928;2023-07-28T14:05:40;26.30;95.60
53422;DHT22;39319;52.944;5.928;2023-07-28T14:08:05;26.20;95.60
53422;DHT22;39319;52.944;5.928;2023-07-28T14:10:31;26.20;95.40
53422;DHT22;39319;52.944;5.928;2023-07-28T14:13:00;26.10;95.40
53422;DHT22;39319;52.944;5.928;2023-07-28T14:15:26;26.10;95.90
53422;DHT22;39319;52.944;5.928;2023-07-28T14:17:51;26.30;96.30
53422;DHT22;39319;52.944;5.928;2023-07-28T14:20:17;26.40;96.60
53422;DHT22;39319;52.944;5.928;2023-07-28T14:22:43;26.60;95.60
53422;DHT22;39319;52.944;5.928;2023-07-28T14:25:08;26.60;95.40
53422;DHT22;39319;52.944;5.928;2023-07-28T14:27:34;26.60;95.50
53422;DHT22;39319;52.944;5.928;2023-07-28T14:30:00;26.60;95.80
53422;DHT22;39319;52.944;5.928;2023-07-28T14:32:25;26.60;96.00
53422;DHT22;39319;52.944;5.928;2023-07-28T14:34:51;26.80;95.60
53422;DHT22;39319;52.944;5.928;2023-07-28T14:37:17;26.80;95.20
53422;DHT22;39319;52.944;5.928;2023-07-28T14:39:42;26.70;95.30
53422;DHT22;39319;52.944;5.928;2023-07-28T14:42:10;26.90;95.50
53422;DHT22;39319;52.944;5.928;2023-07-28T14:44:36;27.00;95.20
53422;DHT22;39319;52.944;5.928;2023-07-28T14:47:02;26.90;95.40
53422;DHT22;39319;52.944;5.928;2023-07-28T14:49:27;27.00;95.40
53422;DHT22;39319;52.944;5.928;2023-07-28T14:51:54;27.00;94.20
53422;DHT22;39319;52.944;5.928;2023-07-28T14:54:20;26.90;94.40
53422;DHT22;39319;52.944;5.928;2023-07-28T14:56:48;26.90;94.90
53422;DHT22;39319;52.944;5.928;2023-07-28T14:59:14;27.00;94.60
53422;DHT22;39319;52.944;5.928;2023-07-28T15:01:41;27.10;94.30
53422;DHT22;39319;52.944;5.928;2023-07-28T15:04:08;27.00;94.30
53422;DHT22;39319;52.944;5.928;2023-07-28T15:06:36;27.00;94.50
53422;DHT22;39319;52.944;5.928;2023-07-28T15:09:02;27.20;94.00
53422;DHT22;39319;52.944;5.928;2023-07-28T15:11:28;26.90;94.20
53422;DHT22;39319;52.944;5.928;2023-07-28T15:13:54;26.80;94.20
53422;DHT22;39319;52.944;5.928;2023-07-28T15:16:19;26.70;94.70
53422;DHT22;39319;52.944;5.928;2023-07-28T15:18:45;26.50;94.70
53422;DHT22;39319;52.944;5.928;2023-07-28T15:21:11;26.50;95.10
53422;DHT22;39319;52.944;5.928;2023-07-28T15:23:37;26.60;94.90
53422;DHT22;39319;52.944;5.928;2023-07-28T15:26:03;26.60;95.10
53422;DHT22;39319;52.944;5.928;2023-07-28T15:28:29;26.60;94.80
53422;DHT22;39319;52.944;5.928;2023-07-28T15:30:54;26.60;94.60
53422;DHT22;39319;52.944;5.928;2023-07-28T15:33:21;26.50;94.60
53422;DHT22;39319;52.944;5.928;2023-07-28T15:35:56;26.30;94.70
53422;DHT22;39319;52.944;5.928;2023-07-28T15:38:22;26.20;94.40
53422;DHT22;39319;52.944;5.928;2023-07-28T15:40:48;26.10;94.70